Time;durP1;ratioP1;P1;durP2;ratioP2;P2;SDS_P1;SDS_P2;PMS_P1;PMS_P2;Temp;Humidity;BMP_temperature;BMP_pressure;BME280_temperature;BME280_humidity;BME280_pressure;Samples;Min_cycle;Max_cycle;Signal;HPM_P1;HPM_P2
2023/08/26 00:00:12;;;;;;;;;2.25;1.00;;;;;;;;5057345;28;47372;-84
2023/08/26 00:02:37;;;;;;;;;2.50;1.00;;;;;;;;5058436;28;45367;-83
2023/08/26 00:05:10;;;;;;;;;2.00;2.00;;;;;;;;5064535;28;45821;-84
2023/08/26 00:07:36;;;;;;;;;1.00;1.00;;;;;;;;5085969;28;45207;-82
2023/08/26 00:10:03;;;;;;;;;1.00;1.00;;;;;;;;5070689;28;48256;-83
2023/08/26 00:12:28;;;;;;;;;0.25;0.25;;;;;;;;5070086;28;44743;-83
2023/08/26 00:14:56;;;;;;;;;1.50;0.00;;;;;;;;5073477;28;44789;-84
2023/08/26 00:17:21;;;;;;;;;1.50;1.50;;;;;;;;5053040;28;45978;-82
2023/08/26 00:19:47;;;;;;;;;1.00;1.00;;;;;;;;5080975;28;45293;-83
2023/08/26 00:22:13;;;;;;;;;1.00;1.00;;;;;;;;5065134;28;45438;-83
2023/08/26 00:24:38;;;;;;;;;1.00;0.25;;;;;;;;5073696;28;45446;-82
2023/08/26 00:27:04;;;;;;;;;1.00;1.00;;;;;;;;5058311;28;46990;-83
2023/08/26 00:29:38;;;;;;;;;2.00;1.00;;;;;;;;5061292;28;45536;-86
2023/08/26 00:32:04;;;;;;;;;1.75;1.00;;;;;;;;5067110;28;44691;-84
2023/08/26 00:34:30;;;;;;;;;0.75;0.75;;;;;;;;5062147;28;45120;-84
2023/08/26 00:37:04;;;;;;;;;1.00;1.00;;;;;;;;5095638;28;44870;-84
2023/08/26 00:39:31;;;;;;;;;2.00;1.00;;;;;;;;5094229;28;45558;-83
2023/08/26 00:41:56;;;;;;;;;1.00;1.00;;;;;;;;5058630;28;44750;-81
2023/08/26 00:44:23;;;;;;;;;0.75;0.75;;;;;;;;5061756;28;45055;-83
2023/08/26 00:46:52;;;;;;;;;0.00;0.00;;;;;;;;5056677;28;44912;-83
2023/08/26 00:49:22;;;;;;;;;1.00;1.00;;;;;;;;5064383;28;45194;-83
2023/08/26 00:55:21;;;;;;;;;0.25;0.00;;;;;;;;5054458;28;45207;-84
2023/08/26 00:58:16;;;;;;;;;1.00;1.00;;;;;;;;5059420;28;45321;-84
2023/08/26 01:03:56;;;;;;;;;2.00;2.00;;;;;;;;4994863;28;44765;-83
2023/08/26 01:06:23;;;;;;;;;3.00;2.00;;;;;;;;5057974;28;45555;-83
2023/08/26 01:08:49;;;;;;;;;4.00;1.00;;;;;;;;5043222;28;45967;-82
2023/08/26 01:11:41;;;;;;;;;1.25;1.25;;;;;;;;5042933;28;46671;-83
2023/08/26 01:14:14;;;;;;;;;2.50;1.00;;;;;;;;5014983;28;45561;-81
2023/08/26 01:16:44;;;;;;;;;0.75;0.00;;;;;;;;5045462;28;45357;-81
2023/08/26 01:19:20;;;;;;;;;0.75;0.75;;;;;;;;5038258;28;46071;-81
2023/08/26 01:22:04;;;;;;;;;2.00;1.00;;;;;;;;5059121;28;45370;-83
2023/08/26 01:24:35;;;;;;;;;1.00;1.00;;;;;;;;5048713;28;45660;-81
2023/08/26 01:27:01;;;;;;;;;1.00;1.00;;;;;;;;5054700;28;44807;-84
2023/08/26 01:29:27;;;;;;;;;3.00;1.25;;;;;;;;5062440;28;44826;-84
2023/08/26 01:32:14;;;;;;;;;0.00;0.00;;;;;;;;5035279;28;45941;-84
2023/08/26 01:34:41;;;;;;;;;0.75;0.75;;;;;;;;5062770;28;44959;-83
2023/08/26 01:37:09;;;;;;;;;4.00;1.50;;;;;;;;5036650;28;44762;-83
2023/08/26 01:39:34;;;;;;;;;1.00;1.00;;;;;;;;5033972;28;45754;-84
2023/08/26 01:42:23;;;;;;;;;1.50;0.75;;;;;;;;5033632;28;45691;-84
2023/08/26 01:44:49;;;;;;;;;1.00;1.00;;;;;;;;5034351;28;44799;-84
2023/08/26 01:47:15;;;;;;;;;2.00;0.00;;;;;;;;5032020;28;46263;-82
2023/08/26 01:49:44;;;;;;;;;1.00;1.00;;;;;;;;5053328;28;44765;-83
2023/08/26 01:52:09;;;;;;;;;1.00;1.00;;;;;;;;5054143;28;46664;-85
2023/08/26 01:54:35;;;;;;;;;1.00;1.00;;;;;;;;5068198;28;45731;-80
2023/08/26 01:57:00;;;;;;;;;1.25;1.25;;;;;;;;5068597;28;45801;-81
2023/08/26 01:59:25;;;;;;;;;1.25;1.25;;;;;;;;5051034;28;45440;-80
2023/08/26 02:01:50;;;;;;;;;1.00;1.00;;;;;;;;5051981;28;46642;-80
2023/08/26 02:04:16;;;;;;;;;1.00;1.00;;;;;;;;5050170;28;45265;-79
2023/08/26 02:06:42;;;;;;;;;1.00;1.00;;;;;;;;5048851;28;45289;-80
2023/08/26 02:09:07;;;;;;;;;0.00;0.00;;;;;;;;5053181;28;47672;-81
2023/08/26 02:11:32;;;;;;;;;1.75;0.00;;;;;;;;5070031;28;45764;-80
2023/08/26 02:13:58;;;;;;;;;1.00;1.00;;;;;;;;5055757;28;44730;-79
2023/08/26 02:16:23;;;;;;;;;0.00;0.00;;;;;;;;5058958;28;45364;-81
2023/08/26 02:18:48;;;;;;;;;0.00;0.00;;;;;;;;5057834;28;45587;-80
2023/08/26 02:21:14;;;;;;;;;1.00;1.00;;;;;;;;5058382;28;45549;-82
2023/08/26 02:23:39;;;;;;;;;1.50;1.50;;;;;;;;5065126;28;44893;-81
2023/08/26 02:26:05;;;;;;;;;3.00;1.00;;;;;;;;5075985;28;45680;-81
2023/08/26 02:28:30;;;;;;;;;1.00;1.00;;;;;;;;5075695;28;45375;-81
2023/08/26 02:30:56;;;;;;;;;0.25;0.25;;;;;;;;5057050;28;46932;-81
2023/08/26 02:33:22;;;;;;;;;1.00;1.00;;;;;;;;5072239;28;45416;-82
2023/08/26 02:35:47;;;;;;;;;0.00;0.00;;;;;;;;5045568;28;45503;-81
2023/08/26 02:38:13;;;;;;;;;1.00;1.00;;;;;;;;5077454;28;45489;-80
2023/08/26 02:40:39;;;;;;;;;0.75;0.75;;;;;;;;5079212;28;45517;-81
2023/08/26 02:43:04;;;;;;;;;1.75;1.00;;;;;;;;5054392;28;44685;-80
2023/08/26 02:45:30;;;;;;;;;0.00;0.00;;;;;;;;5052909;28;45427;-80
2023/08/26 02:47:57;;;;;;;;;1.50;0.75;;;;;;;;5070359;28;45364;-79
2023/08/26 02:50:24;;;;;;;;;1.25;1.00;;;;;;;;5063707;28;45392;-80
2023/08/26 02:52:49;;;;;;;;;3.00;3.00;;;;;;;;5072201;28;45535;-82
2023/08/26 02:55:14;;;;;;;;;0.00;0.00;;;;;;;;5046063;28;45604;-80
2023/08/26 02:57:39;;;;;;;;;2.50;1.00;;;;;;;;5071632;28;44775;-80
2023/08/26 03:00:05;;;;;;;;;0.25;0.25;;;;;;;;5073422;28;45480;-80
2023/08/26 03:02:30;;;;;;;;;2.00;1.00;;;;;;;;5050673;28;45782;-81
2023/08/26 03:04:55;;;;;;;;;3.00;2.00;;;;;;;;5054088;28;44848;-81
2023/08/26 03:07:21;;;;;;;;;1.00;0.00;;;;;;;;5071354;28;45547;-80
2023/08/26 03:09:46;;;;;;;;;1.00;1.00;;;;;;;;5051570;28;47052;-80
2023/08/26 03:12:12;;;;;;;;;2.50;1.00;;;;;;;;5063360;28;44779;-82
2023/08/26 03:14:37;;;;;;;;;1.25;0.25;;;;;;;;5068149;28;45535;-81
2023/08/26 03:17:04;;;;;;;;;1.00;1.00;;;;;;;;5054023;28;44888;-81
2023/08/26 03:19:29;;;;;;;;;5.00;1.75;;;;;;;;5053186;28;46928;-81
2023/08/26 03:21:54;;;;;;;;;2.00;0.50;;;;;;;;5054320;28;44738;-80
2023/08/26 03:24:20;;;;;;;;;2.00;2.00;;;;;;;;5052566;28;45643;-80
2023/08/26 03:26:45;;;;;;;;;3.00;2.00;;;;;;;;5076948;28;45386;-80
2023/08/26 03:29:10;;;;;;;;;1.00;1.00;;;;;;;;5046718;28;45356;-81
2023/08/26 03:31:36;;;;;;;;;2.00;2.00;;;;;;;;5065334;28;45395;-80
2023/08/26 03:34:01;;;;;;;;;1.00;1.00;;;;;;;;5060066;28;45491;-80
2023/08/26 03:36:27;;;;;;;;;1.50;1.25;;;;;;;;5051905;28;46377;-79
2023/08/26 03:38:52;;;;;;;;;0.00;0.00;;;;;;;;5050637;28;47121;-80
2023/08/26 03:41:17;;;;;;;;;1.75;1.75;;;;;;;;5066890;28;45464;-81
2023/08/26 03:43:42;;;;;;;;;1.75;1.75;;;;;;;;5047362;28;45431;-81
2023/08/26 03:46:08;;;;;;;;;3.00;3.00;;;;;;;;5063005;28;45391;-82
2023/08/26 03:48:33;;;;;;;;;1.00;0.00;;;;;;;;5047640;28;47467;-79
2023/08/26 03:50:59;;;;;;;;;3.00;1.00;;;;;;;;5041230;28;45286;-83
2023/08/26 03:53:24;;;;;;;;;1.75;1.00;;;;;;;;5053873;28;45411;-80
2023/08/26 03:55:49;;;;;;;;;1.00;1.00;;;;;;;;5064760;28;45493;-81
2023/08/26 03:58:15;;;;;;;;;0.25;0.25;;;;;;;;5052697;28;47152;-81
2023/08/26 04:00:40;;;;;;;;;1.75;1.00;;;;;;;;5066401;28;45391;-79
2023/08/26 04:03:06;;;;;;;;;3.50;3.00;;;;;;;;5078671;28;45297;-79
2023/08/26 04:05:32;;;;;;;;;1.00;1.00;;;;;;;;5048764;28;45255;-80
2023/08/26 04:07:58;;;;;;;;;1.00;1.00;;;;;;;;5038727;28;47634;-81
2023/08/26 04:10:23;;;;;;;;;0.00;0.00;;;;;;;;5071693;28;44805;-80
2023/08/26 04:12:48;;;;;;;;;0.50;0.50;;;;;;;;5051845;28;45401;-80
2023/08/26 04:15:14;;;;;;;;;1.00;1.00;;;;;;;;5061685;28;45511;-81
2023/08/26 04:17:41;;;;;;;;;0.00;0.00;;;;;;;;5068101;28;45449;-80
2023/08/26 04:20:07;;;;;;;;;1.00;1.00;;;;;;;;5053230;28;45388;-80
2023/08/26 04:22:32;;;;;;;;;2.00;2.00;;;;;;;;5070406;28;45807;-80
2023/08/26 04:24:57;;;;;;;;;1.50;1.50;;;;;;;;5066078;28;45324;-79
2023/08/26 04:27:22;;;;;;;;;1.00;1.00;;;;;;;;5043507;28;47308;-80
2023/08/26 04:29:48;;;;;;;;;2.25;2.25;;;;;;;;5053231;28;45707;-80
2023/08/26 04:32:13;;;;;;;;;2.75;1.25;;;;;;;;5051687;28;45792;-80
2023/08/26 04:34:38;;;;;;;;;3.00;2.00;;;;;;;;5045831;28;45763;-80
2023/08/26 04:37:04;;;;;;;;;1.50;1.00;;;;;;;;5050285;28;46976;-81
2023/08/26 04:39:29;;;;;;;;;1.33;1.33;;;;;;;;5039679;28;45482;-81
2023/08/26 04:41:54;;;;;;;;;1.00;1.00;;;;;;;;5052200;28;45423;-80
2023/08/26 04:44:20;;;;;;;;;1.25;1.25;;;;;;;;5050183;28;46267;-79
2023/08/26 04:46:45;;;;;;;;;1.75;1.75;;;;;;;;5051969;28;47552;-81
2023/08/26 04:49:11;;;;;;;;;0.25;0.25;;;;;;;;5053079;28;45718;-80
2023/08/26 04:51:37;;;;;;;;;2.00;1.25;;;;;;;;5038331;28;45425;-80
2023/08/26 04:54:04;;;;;;;;;0.25;0.25;;;;;;;;5071203;28;44800;-81
2023/08/26 04:56:32;;;;;;;;;2.00;2.00;;;;;;;;5071109;28;45830;-82
2023/08/26 04:58:58;;;;;;;;;2.50;1.00;;;;;;;;5053048;28;45088;-81
2023/08/26 05:01:23;;;;;;;;;1.00;1.00;;;;;;;;5039999;28;45765;-79
2023/08/26 05:03:48;;;;;;;;;3.25;2.00;;;;;;;;5053713;28;45851;-79
2023/08/26 05:06:13;;;;;;;;;2.00;0.00;;;;;;;;5069423;28;45482;-80
2023/08/26 05:08:39;;;;;;;;;2.00;1.75;;;;;;;;5067091;28;45336;-81
2023/08/26 05:11:06;;;;;;;;;1.00;1.00;;;;;;;;5066441;28;45277;-81
2023/08/26 05:13:32;;;;;;;;;1.25;1.25;;;;;;;;5051202;28;45434;-79
2023/08/26 05:15:58;;;;;;;;;0.00;0.00;;;;;;;;5067443;28;45466;-82
2023/08/26 05:18:23;;;;;;;;;2.00;1.00;;;;;;;;5050199;28;45278;-81
2023/08/26 05:20:48;;;;;;;;;1.75;1.75;;;;;;;;5068964;28;44854;-82
2023/08/26 05:23:14;;;;;;;;;1.00;1.00;;;;;;;;5047779;28;45367;-80
2023/08/26 05:25:39;;;;;;;;;0.00;0.00;;;;;;;;5069561;28;45437;-81
2023/08/26 05:28:05;;;;;;;;;1.00;1.00;;;;;;;;5068250;28;45693;-80
2023/08/26 05:30:30;;;;;;;;;3.25;1.00;;;;;;;;5062211;28;45374;-81
2023/08/26 05:32:57;;;;;;;;;0.50;0.50;;;;;;;;5076833;28;45511;-81
2023/08/26 05:35:22;;;;;;;;;1.50;1.00;;;;;;;;5057618;28;45431;-80
2023/08/26 05:37:48;;;;;;;;;3.50;2.00;;;;;;;;5070770;28;45537;-79
2023/08/26 05:40:13;;;;;;;;;2.00;0.50;;;;;;;;5066596;28;44769;-81
2023/08/26 05:42:38;;;;;;;;;2.75;2.00;;;;;;;;5080690;27;45647;-80
2023/08/26 05:45:05;;;;;;;;;3.00;2.25;;;;;;;;5061297;28;45264;-81
2023/08/26 05:47:30;;;;;;;;;1.00;1.00;;;;;;;;5041068;28;44811;-81
2023/08/26 05:49:58;;;;;;;;;2.50;2.50;;;;;;;;5067829;28;45423;-79
2023/08/26 05:52:23;;;;;;;;;1.00;1.00;;;;;;;;5064691;28;45341;-81
2023/08/26 05:54:49;;;;;;;;;0.00;0.00;;;;;;;;5051965;28;46870;-81
2023/08/26 05:57:14;;;;;;;;;0.25;0.25;;;;;;;;5069078;28;44856;-81
2023/08/26 05:59:40;;;;;;;;;0.75;0.75;;;;;;;;5052343;28;44880;-81
2023/08/26 06:02:05;;;;;;;;;2.25;1.00;;;;;;;;5068356;28;45679;-81
2023/08/26 06:04:31;;;;;;;;;2.25;1.00;;;;;;;;5079823;28;45402;-80
2023/08/26 06:06:57;;;;;;;;;2.00;2.00;;;;;;;;5053490;28;45418;-78
2023/08/26 06:09:22;;;;;;;;;3.00;2.00;;;;;;;;5050802;28;45411;-79
2023/08/26 06:11:48;;;;;;;;;1.50;1.50;;;;;;;;5068433;28;45338;-81
2023/08/26 06:14:13;;;;;;;;;3.00;1.00;;;;;;;;5049894;28;46955;-79
2023/08/26 06:16:38;;;;;;;;;0.00;0.00;;;;;;;;5053126;28;45174;-80
2023/08/26 06:19:04;;;;;;;;;0.75;0.75;;;;;;;;5046905;28;46514;-79
2023/08/26 06:21:29;;;;;;;;;0.00;0.00;;;;;;;;5063309;28;45794;-79
2023/08/26 06:23:54;;;;;;;;;4.00;4.00;;;;;;;;5067082;28;45952;-80
2023/08/26 06:26:19;;;;;;;;;0.00;0.00;;;;;;;;5050581;28;45446;-79
2023/08/26 06:28:44;;;;;;;;;1.50;0.75;;;;;;;;5077141;28;45394;-79
2023/08/26 06:31:10;;;;;;;;;0.00;0.00;;;;;;;;5068872;28;45486;-80
2023/08/26 06:33:35;;;;;;;;;0.00;0.00;;;;;;;;5063828;28;45435;-79
2023/08/26 06:36:00;;;;;;;;;1.00;1.00;;;;;;;;5068241;28;45489;-80
2023/08/26 06:38:26;;;;;;;;;2.75;2.75;;;;;;;;5050604;28;45030;-80
2023/08/26 06:40:54;;;;;;;;;3.00;2.00;;;;;;;;5067168;28;46078;-79
2023/08/26 06:43:20;;;;;;;;;1.80;0.80;;;;;;;;5074446;28;46444;-78
2023/08/26 06:45:45;;;;;;;;;2.00;2.00;;;;;;;;5066221;28;45828;-79
2023/08/26 06:48:10;;;;;;;;;1.00;1.00;;;;;;;;5036012;28;45757;-81
2023/08/26 06:50:36;;;;;;;;;1.75;0.25;;;;;;;;5063768;28;44876;-79
2023/08/26 06:53:01;;;;;;;;;1.00;1.00;;;;;;;;5066735;28;45625;-80
2023/08/26 06:55:26;;;;;;;;;2.00;2.00;;;;;;;;5070224;28;45336;-79
2023/08/26 06:57:52;;;;;;;;;1.50;0.00;;;;;;;;5049159;28;45277;-79
2023/08/26 07:00:18;;;;;;;;;0.75;0.75;;;;;;;;5065978;28;45610;-81
2023/08/26 07:02:43;;;;;;;;;0.00;0.00;;;;;;;;5067788;28;45244;-79
2023/08/26 07:05:08;;;;;;;;;2.00;0.25;;;;;;;;5049237;28;44847;-79
2023/08/26 07:07:36;;;;;;;;;0.00;0.00;;;;;;;;5041545;28;45411;-78
2023/08/26 07:10:01;;;;;;;;;0.50;0.50;;;;;;;;5048186;28;47188;-80
2023/08/26 07:12:27;;;;;;;;;1.00;0.00;;;;;;;;5043473;28;46865;-79
2023/08/26 07:14:52;;;;;;;;;0.50;0.00;;;;;;;;5049828;28;45972;-81
2023/08/26 07:17:17;;;;;;;;;0.25;0.25;;;;;;;;5064250;27;45455;-79
2023/08/26 07:19:43;;;;;;;;;0.00;0.00;;;;;;;;5051428;28;45553;-80
2023/08/26 07:22:08;;;;;;;;;0.75;0.75;;;;;;;;5048537;28;47186;-78
2023/08/26 07:24:33;;;;;;;;;0.00;0.00;;;;;;;;5047201;28;44992;-80
2023/08/26 07:26:59;;;;;;;;;0.00;0.00;;;;;;;;5068660;28;45764;-80
2023/08/26 07:29:24;;;;;;;;;0.25;0.25;;;;;;;;5068493;28;45466;-79
2023/08/26 07:31:49;;;;;;;;;2.00;0.00;;;;;;;;5063205;28;45458;-79
2023/08/26 07:34:15;;;;;;;;;1.50;0.00;;;;;;;;5064584;28;45469;-79
2023/08/26 07:36:40;;;;;;;;;0.00;0.00;;;;;;;;5051651;28;45629;-81
2023/08/26 07:39:05;;;;;;;;;0.00;0.00;;;;;;;;5049388;28;46874;-80
2023/08/26 07:41:31;;;;;;;;;0.00;0.00;;;;;;;;5067168;28;45551;-78
2023/08/26 07:43:56;;;;;;;;;0.00;0.00;;;;;;;;5056915;28;45589;-81
2023/08/26 07:46:22;;;;;;;;;1.25;0.00;;;;;;;;5047201;28;45336;-79
2023/08/26 07:48:51;;;;;;;;;0.00;0.00;;;;;;;;5049540;28;46312;-81
2023/08/26 07:51:16;;;;;;;;;0.00;0.00;;;;;;;;5047930;28;47313;-81
2023/08/26 07:53:41;;;;;;;;;0.00;0.00;;;;;;;;5067608;28;44783;-81
2023/08/26 07:56:07;;;;;;;;;1.00;1.00;;;;;;;;5061231;28;45261;-82
2023/08/26 07:58:33;;;;;;;;;1.25;0.00;;;;;;;;5063143;28;45237;-80
2023/08/26 08:00:58;;;;;;;;;0.75;0.00;;;;;;;;5059390;28;45490;-80
2023/08/26 08:03:23;;;;;;;;;0.00;0.00;;;;;;;;5054541;28;45549;-81
2023/08/26 08:05:48;;;;;;;;;0.00;0.00;;;;;;;;5041880;28;45341;-80
2023/08/26 08:08:17;;;;;;;;;0.00;0.00;;;;;;;;5045045;28;45428;-81
2023/08/26 08:10:42;;;;;;;;;0.00;0.00;;;;;;;;5044045;28;46966;-80
2023/08/26 08:13:08;;;;;;;;;0.00;0.00;;;;;;;;5051311;28;45609;-80
2023/08/26 08:15:34;;;;;;;;;0.20;0.00;;;;;;;;5038505;28;45248;-81
2023/08/26 08:17:59;;;;;;;;;0.25;0.25;;;;;;;;5042604;28;45817;-79
2023/08/26 08:20:25;;;;;;;;;0.00;0.00;;;;;;;;5058495;28;45891;-80
2023/08/26 08:22:50;;;;;;;;;0.00;0.00;;;;;;;;5040970;28;44754;-81
2023/08/26 08:25:16;;;;;;;;;0.00;0.00;;;;;;;;5061971;28;45545;-79
2023/08/26 08:27:41;;;;;;;;;0.00;0.00;;;;;;;;5043174;28;46843;-79
2023/08/26 08:30:07;;;;;;;;;0.00;0.00;;;;;;;;5044056;28;46790;-81
2023/08/26 08:32:33;;;;;;;;;0.00;0.00;;;;;;;;5064041;28;45561;-79
2023/08/26 08:34:58;;;;;;;;;0.75;0.75;;;;;;;;5062022;28;45521;-79
2023/08/26 08:37:24;;;;;;;;;0.00;0.00;;;;;;;;5069776;28;45460;-78
2023/08/26 08:39:49;;;;;;;;;1.00;1.00;;;;;;;;5073443;28;45614;-80
2023/08/26 08:42:15;;;;;;;;;0.50;0.50;;;;;;;;5068472;28;46716;-80
2023/08/26 08:44:41;;;;;;;;;0.75;0.00;;;;;;;;5053400;28;45879;-78
2023/08/26 08:47:06;;;;;;;;;1.75;1.00;;;;;;;;5040153;28;46234;-80
2023/08/26 08:49:36;;;;;;;;;0.00;0.00;;;;;;;;5037909;28;47907;-77
2023/08/26 08:52:04;;;;;;;;;1.00;1.00;;;;;;;;5043470;28;45059;-80
2023/08/26 08:54:30;;;;;;;;;1.00;1.00;;;;;;;;5033196;28;46735;-80
2023/08/26 08:56:56;;;;;;;;;0.00;0.00;;;;;;;;5038894;28;45515;-79
2023/08/26 08:59:22;;;;;;;;;1.00;1.00;;;;;;;;5058130;28;46230;-78
2023/08/26 09:01:50;;;;;;;;;0.25;0.25;;;;;;;;5055150;28;45880;-79
2023/08/26 09:04:16;;;;;;;;;1.00;0.00;;;;;;;;5030216;28;45569;-79
2023/08/26 09:06:41;;;;;;;;;0.50;0.00;;;;;;;;5053346;28;45677;-79
2023/08/26 09:09:11;;;;;;;;;0.50;0.50;;;;;;;;5040905;28;46551;-76
2023/08/26 09:11:39;;;;;;;;;2.00;0.00;;;;;;;;5052520;28;45227;-78
2023/08/26 09:14:05;;;;;;;;;0.00;0.00;;;;;;;;5035317;28;44750;-80
2023/08/26 09:16:37;;;;;;;;;0.00;0.00;;;;;;;;5051696;28;45649;-80
2023/08/26 09:19:04;;;;;;;;;0.00;0.00;;;;;;;;5024230;28;45593;-80
2023/08/26 09:21:30;;;;;;;;;0.00;0.00;;;;;;;;5035189;28;45419;-78
2023/08/26 09:23:56;;;;;;;;;0.00;0.00;;;;;;;;5059624;28;45461;-82
2023/08/26 09:26:24;;;;;;;;;1.25;0.00;;;;;;;;5055930;28;45522;-80
2023/08/26 09:28:53;;;;;;;;;0.00;0.00;;;;;;;;5060069;28;46218;-83
2023/08/26 09:31:19;;;;;;;;;0.00;0.00;;;;;;;;5046374;28;45264;-81
2023/08/26 09:33:59;;;;;;;;;1.40;0.40;;;;;;;;5070510;28;45821;-82
2023/08/26 09:36:40;;;;;;;;;0.00;0.00;;;;;;;;5037690;28;45462;-84
2023/08/26 09:39:15;;;;;;;;;0.00;0.00;;;;;;;;5035085;28;46553;-81
2023/08/26 09:41:47;;;;;;;;;0.00;0.00;;;;;;;;5021057;28;46172;-83
2023/08/26 09:44:13;;;;;;;;;1.00;0.80;;;;;;;;5016391;28;45789;-84
2023/08/26 09:46:42;;;;;;;;;0.00;0.00;;;;;;;;5022223;28;45667;-81
2023/08/26 09:49:07;;;;;;;;;2.00;0.00;;;;;;;;5023147;28;47954;-83
2023/08/26 09:51:33;;;;;;;;;1.75;1.00;;;;;;;;5040202;28;45519;-83
2023/08/26 09:54:07;;;;;;;;;0.00;0.00;;;;;;;;5025540;28;45809;-84
2023/08/26 09:56:35;;;;;;;;;1.00;0.00;;;;;;;;5029556;28;45774;-82
2023/08/26 09:59:01;;;;;;;;;0.60;0.60;;;;;;;;5031682;28;47186;-82
2023/08/26 10:01:26;;;;;;;;;1.00;0.00;;;;;;;;5022452;28;45925;-83
2023/08/26 10:04:03;;;;;;;;;0.75;0.00;;;;;;;;5024237;28;45618;-81
2023/08/26 10:06:29;;;;;;;;;0.00;0.00;;;;;;;;5028236;28;46247;-81
2023/08/26 10:09:03;;;;;;;;;0.00;0.00;;;;;;;;5046933;28;45444;-81
2023/08/26 10:11:29;;;;;;;;;0.00;0.00;;;;;;;;5038831;28;46041;-78
2023/08/26 10:13:56;;;;;;;;;0.25;0.25;;;;;;;;5033158;28;45387;-79
2023/08/26 10:16:23;;;;;;;;;1.00;1.00;;;;;;;;5050602;28;45851;-76
2023/08/26 10:19:03;;;;;;;;;0.20;0.00;;;;;;;;5031885;28;47203;-88
2023/08/26 10:21:28;;;;;;;;;0.00;0.00;;;;;;;;5022940;28;45553;-78
2023/08/26 10:23:54;;;;;;;;;1.00;1.00;;;;;;;;5050701;28;45818;-79
2023/08/26 10:26:19;;;;;;;;;0.00;0.00;;;;;;;;5052179;28;45763;-78
2023/08/26 10:28:46;;;;;;;;;1.25;1.00;;;;;;;;5051762;28;46394;-77
2023/08/26 10:31:13;;;;;;;;;0.00;0.00;;;;;;;;5029581;28;45784;-78
2023/08/26 10:33:58;;;;;;;;;0.75;0.75;;;;;;;;5051002;28;45769;-78
2023/08/26 10:36:23;;;;;;;;;0.50;0.00;;;;;;;;5055214;28;45692;-78
2023/08/26 10:38:56;;;;;;;;;1.00;0.00;;;;;;;;5054766;28;46620;-78
2023/08/26 10:41:21;;;;;;;;;0.80;0.80;;;;;;;;5036542;28;45533;-81
2023/08/26 10:43:52;;;;;;;;;0.00;0.00;;;;;;;;5038120;28;45817;-82
2023/08/26 10:46:17;;;;;;;;;0.00;0.00;;;;;;;;5025466;28;46529;-78
2023/08/26 10:48:56;;;;;;;;;0.25;0.25;;;;;;;;5044735;28;45708;-78
2023/08/26 10:51:21;;;;;;;;;0.80;0.80;;;;;;;;5037100;28;46495;-78
2023/08/26 10:53:47;;;;;;;;;1.25;0.00;;;;;;;;5037172;28;45731;-78
2023/08/26 10:56:24;;;;;;;;;1.00;0.50;;;;;;;;5053147;28;45550;-76
2023/08/26 10:58:49;;;;;;;;;1.25;1.25;;;;;;;;5034960;28;47275;-77
2023/08/26 11:01:16;;;;;;;;;1.00;1.00;;;;;;;;5048698;28;45395;-78
2023/08/26 11:03:45;;;;;;;;;1.00;1.00;;;;;;;;5043879;28;45327;-76
2023/08/26 11:06:18;;;;;;;;;1.00;0.00;;;;;;;;5058500;28;45450;-78
2023/08/26 11:08:51;;;;;;;;;1.00;1.00;;;;;;;;5055321;28;45393;-76
2023/08/26 11:11:17;;;;;;;;;0.00;0.00;;;;;;;;5042327;28;46051;-77
2023/08/26 11:13:42;;;;;;;;;2.75;2.75;;;;;;;;5055444;28;45923;-77
2023/08/26 11:16:08;;;;;;;;;0.50;0.50;;;;;;;;5036798;28;47015;-78
2023/08/26 11:18:34;;;;;;;;;3.50;3.50;;;;;;;;5054684;28;45962;-78
2023/08/26 11:21:03;;;;;;;;;0.50;0.00;;;;;;;;5036560;28;45576;-79
2023/08/26 11:23:29;;;;;;;;;0.00;0.00;;;;;;;;5037146;28;45488;-78
2023/08/26 11:25:54;;;;;;;;;0.00;0.00;;;;;;;;5055300;28;45779;-79
2023/08/26 11:28:19;;;;;;;;;0.00;0.00;;;;;;;;5055281;28;45478;-80
2023/08/26 11:30:51;;;;;;;;;0.00;0.00;;;;;;;;5036786;28;45726;-79
2023/08/26 11:33:17;;;;;;;;;0.00;0.00;;;;;;;;5051027;28;45842;-78
2023/08/26 11:35:42;;;;;;;;;0.75;0.00;;;;;;;;5054933;28;45907;-79
2023/08/26 11:38:08;;;;;;;;;0.00;0.00;;;;;;;;5050402;28;46266;-78
2023/08/26 11:40:36;;;;;;;;;1.00;1.00;;;;;;;;5026401;28;45436;-79
2023/08/26 11:43:06;;;;;;;;;0.75;0.75;;;;;;;;5054917;28;45346;-78
2023/08/26 11:45:32;;;;;;;;;1.00;1.00;;;;;;;;5035534;28;45925;-78
2023/08/26 11:47:57;;;;;;;;;0.00;0.00;;;;;;;;5047647;28;46593;-79
2023/08/26 11:50:22;;;;;;;;;0.00;0.00;;;;;;;;5043509;28;45917;-80
2023/08/26 11:52:48;;;;;;;;;0.00;0.00;;;;;;;;5021355;28;45987;-82
2023/08/26 11:55:13;;;;;;;;;0.00;0.00;;;;;;;;5055042;28;45466;-81
2023/08/26 11:57:39;;;;;;;;;0.50;0.50;;;;;;;;5054165;28;45459;-79
2023/08/26 12:00:09;;;;;;;;;1.00;1.00;;;;;;;;5035959;28;45462;-80
2023/08/26 12:02:34;;;;;;;;;0.00;0.00;;;;;;;;5037839;28;45328;-80
2023/08/26 12:04:59;;;;;;;;;0.75;0.75;;;;;;;;5036684;28;45790;-79
2023/08/26 12:07:25;;;;;;;;;4.25;1.25;;;;;;;;5041310;28;47487;-78
2023/08/26 12:09:50;;;;;;;;;0.00;0.00;;;;;;;;5054534;28;45770;-79
2023/08/26 12:12:20;;;;;;;;;0.25;0.00;;;;;;;;5037576;28;45426;-80
2023/08/26 12:14:46;;;;;;;;;0.00;0.00;;;;;;;;5055620;28;45782;-78
2023/08/26 12:17:11;;;;;;;;;1.50;0.00;;;;;;;;5055019;28;46391;-80
2023/08/26 12:19:36;;;;;;;;;0.00;0.00;;;;;;;;5055679;28;45382;-80
2023/08/26 12:22:02;;;;;;;;;0.00;0.00;;;;;;;;5054889;28;45431;-78
2023/08/26 12:24:27;;;;;;;;;0.00;0.00;;;;;;;;5054411;28;45483;-77
2023/08/26 12:26:53;;;;;;;;;0.00;0.00;;;;;;;;5035856;28;47804;-79
2023/08/26 12:29:19;;;;;;;;;0.00;0.00;;;;;;;;5054627;28;46007;-78
2023/08/26 12:31:46;;;;;;;;;0.00;0.00;;;;;;;;5036165;28;45497;-78
2023/08/26 12:34:12;;;;;;;;;0.00;0.00;;;;;;;;5054209;28;45603;-78
2023/08/26 12:36:37;;;;;;;;;2.00;2.00;;;;;;;;5053857;28;45435;-78
2023/08/26 12:39:03;;;;;;;;;0.00;0.00;;;;;;;;5036855;28;45883;-79
2023/08/26 12:41:28;;;;;;;;;2.00;0.00;;;;;;;;5054998;28;45931;-80
2023/08/26 12:43:55;;;;;;;;;0.50;0.50;;;;;;;;5056318;28;45844;-80
2023/08/26 12:46:20;;;;;;;;;0.00;0.00;;;;;;;;5054800;28;46813;-80
2023/08/26 12:48:47;;;;;;;;;2.00;0.75;;;;;;;;5033989;28;45803;-80
2023/08/26 12:51:12;;;;;;;;;0.00;0.00;;;;;;;;5055365;28;45873;-80
2023/08/26 12:53:39;;;;;;;;;0.00;0.00;;;;;;;;5055146;28;45605;-80
2023/08/26 12:56:04;;;;;;;;;1.00;1.00;;;;;;;;5055415;28;46208;-80
2023/08/26 12:58:30;;;;;;;;;5.25;3.25;;;;;;;;5055237;28;45459;-80
2023/08/26 13:00:55;;;;;;;;;0.25;0.25;;;;;;;;5055871;28;45393;-81
2023/08/26 13:03:20;;;;;;;;;0.25;0.25;;;;;;;;5055656;28;45637;-79
2023/08/26 13:05:46;;;;;;;;;0.25;0.25;;;;;;;;5055384;28;45657;-78
2023/08/26 13:08:11;;;;;;;;;1.00;1.00;;;;;;;;5054771;28;45664;-80
2023/08/26 13:10:36;;;;;;;;;1.25;0.00;;;;;;;;5059245;28;45802;-79
2023/08/26 13:13:02;;;;;;;;;1.25;0.75;;;;;;;;5067533;28;45391;-79
2023/08/26 13:15:27;;;;;;;;;0.25;0.25;;;;;;;;5043588;28;47382;-78
2023/08/26 13:17:55;;;;;;;;;1.00;1.00;;;;;;;;5055590;28;45871;-79
2023/08/26 13:20:20;;;;;;;;;2.75;0.50;;;;;;;;5031873;28;45410;-81
2023/08/26 13:22:45;;;;;;;;;0.00;0.00;;;;;;;;5054780;28;45853;-78
2023/08/26 13:25:11;;;;;;;;;2.00;1.00;;;;;;;;5054739;28;45863;-79
2023/08/26 13:27:36;;;;;;;;;0.00;0.00;;;;;;;;5054473;28;45349;-79
2023/08/26 13:30:01;;;;;;;;;2.00;1.00;;;;;;;;5054401;28;45645;-79
2023/08/26 13:32:26;;;;;;;;;2.75;2.25;;;;;;;;5054054;28;45587;-80
2023/08/26 13:34:52;;;;;;;;;0.00;0.00;;;;;;;;5035423;28;47110;-78
2023/08/26 13:37:17;;;;;;;;;1.00;1.00;;;;;;;;5051773;28;45878;-79
2023/08/26 13:39:42;;;;;;;;;3.25;1.00;;;;;;;;5051455;28;45475;-78
2023/08/26 13:42:07;;;;;;;;;0.00;0.00;;;;;;;;5053990;28;45682;-79
2023/08/26 13:44:33;;;;;;;;;0.00;0.00;;;;;;;;5053717;28;45787;-78
2023/08/26 13:46:58;;;;;;;;;1.00;1.00;;;;;;;;5048947;28;45625;-79
2023/08/26 13:49:25;;;;;;;;;1.00;0.00;;;;;;;;5046540;28;46214;-77
2023/08/26 13:51:51;;;;;;;;;0.00;0.00;;;;;;;;5034139;28;46562;-78
2023/08/26 13:54:16;;;;;;;;;0.75;0.00;;;;;;;;5052131;28;45693;-78
2023/08/26 13:56:41;;;;;;;;;0.25;0.25;;;;;;;;5053113;28;45693;-79
2023/08/26 13:59:06;;;;;;;;;0.00;0.00;;;;;;;;5052012;28;45709;-77
2023/08/26 14:01:32;;;;;;;;;0.00;0.00;;;;;;;;5054379;28;45517;-79
2023/08/26 14:03:57;;;;;;;;;0.00;0.00;;;;;;;;5052965;28;45607;-78
2023/08/26 14:06:22;;;;;;;;;0.00;0.00;;;;;;;;5052968;28;45490;-78
2023/08/26 14:08:47;;;;;;;;;0.00;0.00;;;;;;;;5054643;28;44770;-78
2023/08/26 14:11:13;;;;;;;;;0.00;0.00;;;;;;;;5038395;28;45650;-78
2023/08/26 14:13:38;;;;;;;;;0.75;0.75;;;;;;;;5056430;28;45695;-80
2023/08/26 14:16:04;;;;;;;;;1.00;1.00;;;;;;;;5030655;28;45873;-80
2023/08/26 14:18:29;;;;;;;;;0.00;0.00;;;;;;;;5052434;28;45483;-79
2023/08/26 14:20:54;;;;;;;;;0.00;0.00;;;;;;;;5037956;28;46519;-80
2023/08/26 14:23:19;;;;;;;;;0.75;0.75;;;;;;;;5056615;28;45724;-79
2023/08/26 14:25:45;;;;;;;;;0.25;0.25;;;;;;;;5039802;28;45557;-80
2023/08/26 14:28:11;;;;;;;;;1.00;0.00;;;;;;;;5058380;28;45439;-78
2023/08/26 14:30:36;;;;;;;;;0.00;0.00;;;;;;;;5047009;28;45541;-79
2023/08/26 14:33:02;;;;;;;;;0.00;0.00;;;;;;;;5057310;28;46540;-80
2023/08/26 14:35:27;;;;;;;;;0.00;0.00;;;;;;;;5057204;28;45399;-80
2023/08/26 14:37:53;;;;;;;;;2.00;1.00;;;;;;;;5057277;28;45514;-80
2023/08/26 14:40:18;;;;;;;;;0.00;0.00;;;;;;;;5038522;28;46000;-79
2023/08/26 14:42:43;;;;;;;;;0.00;0.00;;;;;;;;5038676;28;46185;-79
2023/08/26 14:45:09;;;;;;;;;0.00;0.00;;;;;;;;5038269;28;45504;-80